Time;durP1;ratioP1;P1;durP2;ratioP2;P2;SDS_P1;SDS_P2;PMS_P1;PMS_P2;Temp;Humidity;BMP_temperature;BMP_pressure;BME280_temperature;BME280_humidity;BME280_pressure;Samples;Min_cycle;Max_cycle;Signal;HPM_P1;HPM_P2
2023/12/06 00:00:14;;;;;;;;;;;;;;;;;;5105788;28;20290;-56
2023/12/06 00:02:40;;;;;;;;;;;;;;;;;;5104579;28;19928;-57
2023/12/06 00:05:10;;;;;;;;;;;;;;;;;;5104809;28;20442;-57
2023/12/06 00:07:35;;;;;;;;;;;;;;;;;;5105904;28;19955;-56
2023/12/06 00:10:01;;;;;;;;;;;;;;;;;;5105333;28;20027;-56
2023/12/06 00:12:27;;;;;;;;;;;;;;;;;;5104928;28;19924;-57
2023/12/06 00:14:52;;;;;;;;;;;;;;;;;;5104956;28;20029;-57
2023/12/06 00:17:18;;;;;;;;;;;;;;;;;;5105789;28;19934;-57
2023/12/06 00:19:43;;;;;;;;;;;;;;;;;;5105935;28;19930;-57
2023/12/06 00:22:09;;;;;;;;;;;;;;;;;;5105861;28;19974;-57
2023/12/06 00:24:34;;;;;;;;;;;;;;;;;;5104172;28;19935;-57
2023/12/06 00:27:00;;;;;;;;;;;;;;;;;;5105857;28;20007;-57
2023/12/06 00:29:25;;;;;;;;;;;;;;;;;;5105644;28;19924;-57
2023/12/06 00:31:51;;;;;;;;;;;;;;;;;;5105099;28;20438;-57
2023/12/06 00:34:16;;;;;;;;;;;;;;;;;;5104392;28;19982;-56
2023/12/06 00:36:42;;;;;;;;;;;;;;;;;;5105152;28;20042;-57
2023/12/06 00:39:08;;;;;;;;;;;;;;;;;;5105878;28;20268;-56
2023/12/06 00:41:33;;;;;;;;;;;;;;;;;;5105597;28;19932;-56
2023/12/06 00:44:02;;;;;;;;;;;;;;;;;;5104344;28;20207;-57
2023/12/06 00:46:27;;;;;;;;;;;;;;;;;;5107387;28;19923;-57
2023/12/06 00:48:53;;;;;;;;;;;;;;;;;;5108421;28;20023;-57
2023/12/06 00:51:18;;;;;;;;;;;;;;;;;;5108863;28;19934;-57
2023/12/06 00:53:44;;;;;;;;;;;;;;;;;;5107458;28;19932;-57
2023/12/06 00:56:09;;;;;;;;;;;;;;;;;;5108261;28;20379;-57
2023/12/06 00:58:34;;;;;;;;;;;;;;;;;;5108673;28;20513;-57
2023/12/06 01:01:00;;;;;;;;;;;;;;;;;;5108459;28;20366;-57
2023/12/06 01:03:25;;;;;;;;;;;;;;;;;;5107443;28;19924;-57
2023/12/06 01:05:51;;;;;;;;;;;;;;;;;;5108689;28;19971;-57
2023/12/06 01:08:17;;;;;;;;;;;;;;;;;;5109194;28;19931;-57
2023/12/06 01:10:43;;;;;;;;;;;;;;;;;;5108492;28;20014;-57
2023/12/06 01:13:09;;;;;;;;;;;;;;;;;;5107909;28;19938;-57
2023/12/06 01:15:34;;;;;;;;;;;;;;;;;;5107806;28;19963;-57
2023/12/06 01:18:00;;;;;;;;;;;;;;;;;;5108725;28;20043;-58
2023/12/06 01:20:25;;;;;;;;;;;;;;;;;;5108932;28;20282;-57
2023/12/06 01:22:51;;;;;;;;;;;;;;;;;;5107846;28;19931;-57
2023/12/06 01:25:16;;;;;;;;;;;;;;;;;;5107377;28;20000;-57
2023/12/06 01:27:42;;;;;;;;;;;;;;;;;;5108869;28;19971;-57
2023/12/06 01:30:07;;;;;;;;;;;;;;;;;;5109069;28;20022;-57
2023/12/06 01:32:37;;;;;;;;;;;;;;;;;;5107787;28;19978;-57
2023/12/06 01:35:02;;;;;;;;;;;;;;;;;;5107365;28;19959;-57
2023/12/06 01:37:28;;;;;;;;;;;;;;;;;;5108649;28;20409;-57
2023/12/06 01:39:53;;;;;;;;;;;;;;;;;;5107840;28;20015;-57
2023/12/06 01:42:19;;;;;;;;;;;;;;;;;;5106825;28;19978;-57
2023/12/06 01:44:44;;;;;;;;;;;;;;;;;;5107583;28;20022;-57
2023/12/06 01:47:09;;;;;;;;;;;;;;;;;;5110021;28;20391;-57
2023/12/06 01:49:35;;;;;;;;;;;;;;;;;;5107384;28;20481;-57
2023/12/06 01:52:00;;;;;;;;;;;;;;;;;;5107337;28;20328;-57
2023/12/06 01:54:26;;;;;;;;;;;;;;;;;;5107207;28;20476;-57
2023/12/06 01:56:51;;;;;;;;;;;;;;;;;;5107964;28;19924;-57
2023/12/06 01:59:17;;;;;;;;;;;;;;;;;;5107977;28;20062;-56
2023/12/06 02:01:42;;;;;;;;;;;;;;;;;;5107647;28;19930;-56
2023/12/06 02:04:08;;;;;;;;;;;;;;;;;;5105773;28;19932;-57
2023/12/06 02:06:33;;;;;;;;;;;;;;;;;;5107136;28;20407;-57
2023/12/06 02:08:59;;;;;;;;;;;;;;;;;;5107623;28;19980;-57
2023/12/06 02:11:25;;;;;;;;;;;;;;;;;;5107583;28;19932;-57
2023/12/06 02:13:50;;;;;;;;;;;;;;;;;;5106057;28;19924;-56
2023/12/06 02:16:15;;;;;;;;;;;;;;;;;;5107550;28;20435;-57
2023/12/06 02:18:41;;;;;;;;;;;;;;;;;;5107713;28;20339;-57
2023/12/06 02:21:06;;;;;;;;;;;;;;;;;;5107558;28;19934;-56
2023/12/06 02:23:32;;;;;;;;;;;;;;;;;;5106352;28;19924;-56
2023/12/06 02:25:57;;;;;;;;;;;;;;;;;;5109275;28;19981;-57
2023/12/06 02:28:23;;;;;;;;;;;;;;;;;;5107716;28;20358;-57
2023/12/06 02:30:48;;;;;;;;;;;;;;;;;;5107175;28;20313;-57
2023/12/06 02:33:14;;;;;;;;;;;;;;;;;;5105945;28;20024;-57
2023/12/06 02:35:39;;;;;;;;;;;;;;;;;;5106062;28;20450;-57
2023/12/06 02:38:05;;;;;;;;;;;;;;;;;;5107092;28;20355;-57
2023/12/06 02:40:30;;;;;;;;;;;;;;;;;;5106822;28;19988;-56
2023/12/06 02:42:56;;;;;;;;;;;;;;;;;;5105535;28;20014;-57
2023/12/06 02:45:21;;;;;;;;;;;;;;;;;;5105798;28;19924;-57
2023/12/06 02:47:46;;;;;;;;;;;;;;;;;;5107190;28;19967;-58
2023/12/06 02:50:12;;;;;;;;;;;;;;;;;;5107089;28;19924;-57
2023/12/06 02:52:37;;;;;;;;;;;;;;;;;;5106408;28;20340;-56
2023/12/06 02:55:03;;;;;;;;;;;;;;;;;;5106056;28;19930;-57
2023/12/06 02:57:29;;;;;;;;;;;;;;;;;;5106313;28;19931;-57
2023/12/06 02:59:54;;;;;;;;;;;;;;;;;;5106677;28;20465;-57
2023/12/06 03:02:19;;;;;;;;;;;;;;;;;;5106405;28;20397;-56
2023/12/06 03:04:45;;;;;;;;;;;;;;;;;;5105501;28;19943;-57
2023/12/06 03:07:11;;;;;;;;;;;;;;;;;;5106879;28;19963;-57
2023/12/06 03:09:36;;;;;;;;;;;;;;;;;;5105829;28;19924;-57
2023/12/06 03:12:02;;;;;;;;;;;;;;;;;;5106623;28;19931;-57
2023/12/06 03:14:28;;;;;;;;;;;;;;;;;;5105874;28;19969;-57
2023/12/06 03:16:53;;;;;;;;;;;;;;;;;;5107102;28;19955;-57
2023/12/06 03:19:19;;;;;;;;;;;;;;;;;;5106163;28;19923;-57
2023/12/06 03:21:44;;;;;;;;;;;;;;;;;;5106104;28;19974;-57
2023/12/06 03:24:10;;;;;;;;;;;;;;;;;;5105307;28;20399;-57
2023/12/06 03:26:35;;;;;;;;;;;;;;;;;;5109788;28;19931;-57
2023/12/06 03:29:01;;;;;;;;;;;;;;;;;;5105848;28;19945;-57
2023/12/06 03:31:26;;;;;;;;;;;;;;;;;;5105568;28;19924;-57
2023/12/06 03:33:51;;;;;;;;;;;;;;;;;;5104802;28;19932;-57
2023/12/06 03:36:17;;;;;;;;;;;;;;;;;;5105298;28;20034;-57
2023/12/06 03:38:43;;;;;;;;;;;;;;;;;;5106254;28;19974;-57
2023/12/06 03:41:09;;;;;;;;;;;;;;;;;;5105259;28;19963;-56
2023/12/06 03:43:34;;;;;;;;;;;;;;;;;;5105873;28;19981;-56
2023/12/06 03:46:00;;;;;;;;;;;;;;;;;;5105528;28;20015;-56
2023/12/06 03:48:25;;;;;;;;;;;;;;;;;;5108596;28;19934;-57
2023/12/06 03:50:51;;;;;;;;;;;;;;;;;;5105900;28;20824;-57
2023/12/06 03:53:16;;;;;;;;;;;;;;;;;;5105715;28;20092;-57
2023/12/06 03:55:42;;;;;;;;;;;;;;;;;;5105554;28;19937;-56
2023/12/06 03:58:07;;;;;;;;;;;;;;;;;;5105425;28;19927;-57
2023/12/06 04:00:33;;;;;;;;;;;;;;;;;;5105795;28;19924;-57
2023/12/06 04:02:58;;;;;;;;;;;;;;;;;;5105069;28;19924;-56
2023/12/06 04:05:24;;;;;;;;;;;;;;;;;;5105263;28;19931;-57
2023/12/06 04:07:49;;;;;;;;;;;;;;;;;;5106426;28;19924;-57
2023/12/06 04:10:14;;;;;;;;;;;;;;;;;;5105738;28;20018;-57
2023/12/06 04:12:40;;;;;;;;;;;;;;;;;;5105673;28;19966;-57
2023/12/06 04:15:06;;;;;;;;;;;;;;;;;;5104596;28;19951;-57
2023/12/06 04:17:31;;;;;;;;;;;;;;;;;;5105594;28;19974;-56
2023/12/06 04:19:57;;;;;;;;;;;;;;;;;;5105651;28;20367;-57
2023/12/06 04:22:22;;;;;;;;;;;;;;;;;;5107821;28;19923;-56
2023/12/06 04:24:48;;;;;;;;;;;;;;;;;;5107949;28;19930;-57
2023/12/06 04:27:13;;;;;;;;;;;;;;;;;;5109326;28;19923;-56
2023/12/06 04:29:39;;;;;;;;;;;;;;;;;;5109636;28;20010;-57
2023/12/06 04:32:04;;;;;;;;;;;;;;;;;;5108644;28;20200;-57
2023/12/06 04:34:30;;;;;;;;;;;;;;;;;;5108055;28;20406;-57
2023/12/06 04:36:55;;;;;;;;;;;;;;;;;;5109344;28;20022;-57
2023/12/06 04:39:21;;;;;;;;;;;;;;;;;;5108748;28;20426;-57
2023/12/06 04:41:46;;;;;;;;;;;;;;;;;;5108715;28;19928;-57
2023/12/06 04:44:12;;;;;;;;;;;;;;;;;;5107303;28;19928;-57
2023/12/06 04:46:37;;;;;;;;;;;;;;;;;;5108637;28;20022;-57
2023/12/06 04:49:03;;;;;;;;;;;;;;;;;;5109101;28;20452;-57
2023/12/06 04:51:28;;;;;;;;;;;;;;;;;;5110779;28;20427;-57
2023/12/06 04:53:54;;;;;;;;;;;;;;;;;;5108277;28;19928;-57
2023/12/06 04:56:19;;;;;;;;;;;;;;;;;;5108660;28;19938;-57
2023/12/06 04:58:45;;;;;;;;;;;;;;;;;;5109055;28;19977;-57
2023/12/06 05:01:10;;;;;;;;;;;;;;;;;;5108987;28;20019;-57
2023/12/06 05:03:36;;;;;;;;;;;;;;;;;;5108268;28;19924;-57
2023/12/06 05:06:01;;;;;;;;;;;;;;;;;;5108092;28;19930;-57
2023/12/06 05:08:27;;;;;;;;;;;;;;;;;;5108134;28;20331;-57
2023/12/06 05:10:52;;;;;;;;;;;;;;;;;;5108355;28;19923;-57
2023/12/06 05:13:18;;;;;;;;;;;;;;;;;;5107641;28;20065;-57
2023/12/06 05:15:43;;;;;;;;;;;;;;;;;;5106605;28;20018;-57
2023/12/06 05:18:09;;;;;;;;;;;;;;;;;;5108493;28;19930;-57
2023/12/06 05:20:34;;;;;;;;;;;;;;;;;;5108720;28;20406;-56
2023/12/06 05:23:00;;;;;;;;;;;;;;;;;;5106511;28;19931;-57
2023/12/06 05:25:25;;;;;;;;;;;;;;;;;;5107500;28;19979;-57
2023/12/06 05:27:50;;;;;;;;;;;;;;;;;;5108324;28;20402;-57
2023/12/06 05:30:16;;;;;;;;;;;;;;;;;;5111901;28;20357;-57
2023/12/06 05:32:41;;;;;;;;;;;;;;;;;;5106950;28;20227;-57
2023/12/06 05:35:07;;;;;;;;;;;;;;;;;;5107667;28;20006;-57
2023/12/06 05:37:32;;;;;;;;;;;;;;;;;;5108210;28;20014;-57
2023/12/06 05:39:58;;;;;;;;;;;;;;;;;;5107756;28;20162;-57
2023/12/06 05:42:23;;;;;;;;;;;;;;;;;;5107460;28;20379;-57
2023/12/06 05:44:49;;;;;;;;;;;;;;;;;;5106233;28;19932;-57
2023/12/06 05:47:14;;;;;;;;;;;;;;;;;;5107563;28;20052;-57
2023/12/06 05:49:40;;;;;;;;;;;;;;;;;;5107945;28;20324;-57
2023/12/06 05:52:05;;;;;;;;;;;;;;;;;;5107583;28;19927;-56
2023/12/06 05:54:31;;;;;;;;;;;;;;;;;;5111643;28;20015;-57
2023/12/06 05:56:58;;;;;;;;;;;;;;;;;;5107653;28;20007;-56
2023/12/06 05:59:23;;;;;;;;;;;;;;;;;;5108144;28;20026;-57
2023/12/06 06:01:48;;;;;;;;;;;;;;;;;;5105786;28;20359;-57
2023/12/06 06:04:14;;;;;;;;;;;;;;;;;;5102748;28;20394;-57
2023/12/06 06:06:40;;;;;;;;;;;;;;;;;;5103646;28;19946;-57
2023/12/06 06:09:05;;;;;;;;;;;;;;;;;;5105907;28;19932;-57
2023/12/06 06:11:31;;;;;;;;;;;;;;;;;;5106866;28;19950;-56
2023/12/06 06:13:56;;;;;;;;;;;;;;;;;;5106543;28;19992;-57
2023/12/06 06:16:21;;;;;;;;;;;;;;;;;;5103613;28;20359;-57
2023/12/06 06:18:47;;;;;;;;;;;;;;;;;;5098048;28;19959;-57
2023/12/06 06:21:13;;;;;;;;;;;;;;;;;;5101574;28;20006;-57
2023/12/06 06:23:38;;;;;;;;;;;;;;;;;;5100977;28;19974;-56
2023/12/06 06:26:04;;;;;;;;;;;;;;;;;;5102817;28;20019;-56
2023/12/06 06:28:29;;;;;;;;;;;;;;;;;;5104177;28;20026;-56
2023/12/06 06:30:57;;;;;;;;;;;;;;;;;;5106668;28;20395;-57
2023/12/06 06:33:22;;;;;;;;;;;;;;;;;;5104679;28;19973;-57
2023/12/06 06:35:48;;;;;;;;;;;;;;;;;;5105386;28;19981;-57
2023/12/06 06:38:13;;;;;;;;;;;;;;;;;;5104733;28;19931;-57
2023/12/06 06:40:39;;;;;;;;;;;;;;;;;;5104687;28;19923;-57
2023/12/06 06:43:06;;;;;;;;;;;;;;;;;;5101810;28;19931;-53
2023/12/06 06:45:31;;;;;;;;;;;;;;;;;;5102484;28;19930;-57
2023/12/06 06:47:56;;;;;;;;;;;;;;;;;;5104055;28;19932;-57
2023/12/06 06:50:22;;;;;;;;;;;;;;;;;;5103503;28;20180;-57
2023/12/06 06:52:47;;;;;;;;;;;;;;;;;;5102742;28;20220;-56
2023/12/06 06:55:13;;;;;;;;;;;;;;;;;;5103960;28;20172;-57
2023/12/06 06:57:38;;;;;;;;;;;;;;;;;;5095484;28;19932;-57
2023/12/06 07:00:04;;;;;;;;;;;;;;;;;;5098233;28;19924;-57
2023/12/06 07:02:29;;;;;;;;;;;;;;;;;;5093222;28;20024;-57
2023/12/06 07:04:55;;;;;;;;;;;;;;;;;;5096647;28;20423;-57
2023/12/06 07:07:21;;;;;;;;;;;;;;;;;;5093428;28;19981;-57
2023/12/06 07:09:47;;;;;;;;;;;;;;;;;;5088972;28;19963;-57
2023/12/06 07:12:12;;;;;;;;;;;;;;;;;;5092285;28;20428;-57
2023/12/06 07:14:38;;;;;;;;;;;;;;;;;;5098831;28;19924;-57
2023/12/06 07:17:03;;;;;;;;;;;;;;;;;;5098529;28;20390;-57
2023/12/06 07:19:29;;;;;;;;;;;;;;;;;;5096718;28;19924;-57
2023/12/06 07:21:55;;;;;;;;;;;;;;;;;;5099213;28;20015;-57
2023/12/06 07:24:20;;;;;;;;;;;;;;;;;;5100265;28;20019;-57
2023/12/06 07:26:46;;;;;;;;;;;;;;;;;;5096416;28;19936;-57
2023/12/06 07:29:12;;;;;;;;;;;;;;;;;;5101578;28;19963;-57
2023/12/06 07:31:38;;;;;;;;;;;;;;;;;;5099925;28;19934;-57
2023/12/06 07:34:03;;;;;;;;;;;;;;;;;;5088843;28;19935;-57
2023/12/06 07:36:35;;;;;;;;;;;;;;;;;;5096790;28;20027;-57
2023/12/06 07:39:01;;;;;;;;;;;;;;;;;;5099906;28;20365;-58
2023/12/06 07:41:26;;;;;;;;;;;;;;;;;;5101510;28;19935;-57
2023/12/06 07:43:51;;;;;;;;;;;;;;;;;;5101732;28;20481;-57
2023/12/06 07:46:17;;;;;;;;;;;;;;;;;;5099725;28;20306;-57
2023/12/06 07:48:42;;;;;;;;;;;;;;;;;;5101686;28;20023;-57
2023/12/06 07:57:08;;;;;;;;;;;;;;;;;;5099763;28;19938;-57
2023/12/06 07:59:33;;;;;;;;;;;;;;;;;;5088896;28;20294;-57
2023/12/06 08:01:59;;;;;;;;;;;;;;;;;;5085948;28;19927;-57
2023/12/06 08:04:24;;;;;;;;;;;;;;;;;;5088715;28;20382;-57
2023/12/06 08:06:51;;;;;;;;;;;;;;;;;;5094059;28;20037;-57
2023/12/06 08:09:17;;;;;;;;;;;;;;;;;;5093374;28;19976;-57
2023/12/06 08:11:43;;;;;;;;;;;;;;;;;;5092741;28;19931;-57
2023/12/06 08:14:08;;;;;;;;;;;;;;;;;;5101499;28;19931;-57
2023/12/06 08:16:34;;;;;;;;;;;;;;;;;;5095087;28;19928;-57
2023/12/06 08:18:59;;;;;;;;;;;;;;;;;;5091417;28;20486;-57
2023/12/06 08:21:25;;;;;;;;;;;;;;;;;;5093068;28;19935;-57
2023/12/06 08:23:50;;;;;;;;;;;;;;;;;;5094702;28;20017;-57
2023/12/06 08:26:16;;;;;;;;;;;;;;;;;;5099029;28;19932;-57
2023/12/06 08:28:42;;;;;;;;;;;;;;;;;;5100676;28;19942;-57
2023/12/06 08:31:08;;;;;;;;;;;;;;;;;;5094370;28;20321;-57
2023/12/06 08:33:33;;;;;;;;;;;;;;;;;;5095528;28;19952;-57
2023/12/06 08:35:59;;;;;;;;;;;;;;;;;;5095557;28;20009;-57
2023/12/06 08:38:24;;;;;;;;;;;;;;;;;;5097453;28;19923;-57
2023/12/06 08:40:50;;;;;;;;;;;;;;;;;;5096513;28;19932;-57
2023/12/06 08:43:15;;;;;;;;;;;;;;;;;;5096473;28;20088;-57
2023/12/06 08:45:41;;;;;;;;;;;;;;;;;;5099432;28;20645;-57
2023/12/06 08:48:06;;;;;;;;;;;;;;;;;;5098141;28;19932;-57
2023/12/06 08:50:32;;;;;;;;;;;;;;;;;;5092477;28;19935;-57
2023/12/06 08:52:57;;;;;;;;;;;;;;;;;;5092763;28;19924;-57
2023/12/06 08:55:23;;;;;;;;;;;;;;;;;;5089378;28;20444;-56
2023/12/06 08:57:50;;;;;;;;;;;;;;;;;;5093856;28;20988;-57
2023/12/06 09:00:15;;;;;;;;;;;;;;;;;;5097933;28;19931;-57
2023/12/06 09:02:41;;;;;;;;;;;;;;;;;;5104313;28;20003;-57
2023/12/06 09:05:06;;;;;;;;;;;;;;;;;;5095291;28;19951;-57
2023/12/06 09:07:31;;;;;;;;;;;;;;;;;;5090096;28;19939;-57
2023/12/06 09:09:57;;;;;;;;;;;;;;;;;;5094215;28;19923;-57
2023/12/06 09:12:22;;;;;;;;;;;;;;;;;;5103621;28;19985;-57
2023/12/06 09:14:48;;;;;;;;;;;;;;;;;;5101708;28;20410;-57
2023/12/06 09:17:13;;;;;;;;;;;;;;;;;;5092574;28;19950;-57
2023/12/06 09:19:39;;;;;;;;;;;;;;;;;;5100319;28;19935;-57
2023/12/06 09:22:05;;;;;;;;;;;;;;;;;;5096829;28;20022;-59
2023/12/06 09:24:31;;;;;;;;;;;;;;;;;;5100712;28;19931;-58
2023/12/06 09:26:56;;;;;;;;;;;;;;;;;;5094290;28;19932;-59
2023/12/06 09:29:22;;;;;;;;;;;;;;;;;;5097734;28;20023;-58
2023/12/06 09:31:47;;;;;;;;;;;;;;;;;;5097358;28;19924;-58
2023/12/06 09:34:13;;;;;;;;;;;;;;;;;;5103128;28;20361;-59
2023/12/06 09:36:39;;;;;;;;;;;;;;;;;;5092725;28;19931;-58
2023/12/06 09:39:05;;;;;;;;;;;;;;;;;;5095725;28;20264;-57
2023/12/06 09:41:31;;;;;;;;;;;;;;;;;;5096308;28;19936;-58
2023/12/06 09:43:56;;;;;;;;;;;;;;;;;;5098092;28;20549;-58
2023/12/06 09:46:22;;;;;;;;;;;;;;;;;;5100342;28;19931;-58
2023/12/06 09:48:47;;;;;;;;;;;;;;;;;;5097492;28;19923;-58
2023/12/06 09:51:13;;;;;;;;;;;;;;;;;;5101743;28;20031;-58
2023/12/06 09:53:38;;;;;;;;;;;;;;;;;;5103149;28;19954;-58
2023/12/06 09:56:04;;;;;;;;;;;;;;;;;;5098411;28;19928;-58
2023/12/06 09:58:30;;;;;;;;;;;;;;;;;;5102193;28;20206;-58
2023/12/06 10:00:57;;;;;;;;;;;;;;;;;;5094945;28;19974;-58
2023/12/06 10:03:23;;;;;;;;;;;;;;;;;;5097304;28;20284;-58
2023/12/06 10:05:48;;;;;;;;;;;;;;;;;;5100129;28;19924;-58
2023/12/06 10:08:13;;;;;;;;;;;;;;;;;;5093436;28;19927;-59
2023/12/06 10:10:39;;;;;;;;;;;;;;;;;;5096294;28;19970;-58
2023/12/06 10:13:04;;;;;;;;;;;;;;;;;;5094700;28;19927;-60
2023/12/06 10:15:30;;;;;;;;;;;;;;;;;;5099550;28;20400;-57
2023/12/06 10:17:55;;;;;;;;;;;;;;;;;;5095316;28;19947;-57
2023/12/06 10:20:22;;;;;;;;;;;;;;;;;;5101967;28;19936;-53
2023/12/06 10:22:48;;;;;;;;;;;;;;;;;;5097931;28;19935;-56
2023/12/06 10:25:13;;;;;;;;;;;;;;;;;;5098364;28;19932;-61
2023/12/06 10:27:38;;;;;;;;;;;;;;;;;;5091802;28;20415;-60
2023/12/06 10:30:05;;;;;;;;;;;;;;;;;;5093538;28;19928;-61
2023/12/06 10:32:31;;;;;;;;;;;;;;;;;;5083332;28;20640;-58
2023/12/06 10:34:56;;;;;;;;;;;;;;;;;;5083979;28;19932;-59
2023/12/06 10:37:22;;;;;;;;;;;;;;;;;;5081681;28;20806;-59
2023/12/06 10:39:47;;;;;;;;;;;;;;;;;;5079442;28;19923;-59
2023/12/06 10:42:13;;;;;;;;;;;;;;;;;;5078274;28;19927;-59
2023/12/06 10:44:38;;;;;;;;;;;;;;;;;;5073393;28;19943;-59
2023/12/06 10:47:04;;;;;;;;;;;;;;;;;;5076788;28;19938;-59
2023/12/06 10:49:36;;;;;;;;;;;;;;;;;;5097499;28;20034;-59
2023/12/06 10:52:02;;;;;;;;;;;;;;;;;;5093061;28;20033;-59
2023/12/06 10:54:27;;;;;;;;;;;;;;;;;;5096377;28;19992;-59
2023/12/06 10:56:55;;;;;;;;;;;;;;;;;;5095343;28;20033;-59
2023/12/06 10:59:20;;;;;;;;;;;;;;;;;;5092926;28;19967;-59
2023/12/06 11:01:46;;;;;;;;;;;;;;;;;;5100064;28;19935;-59
2023/12/06 11:04:12;;;;;;;;;;;;;;;;;;5098011;28;19954;-59
2023/12/06 11:06:37;;;;;;;;;;;;;;;;;;5096695;28;19974;-59
2023/12/06 11:09:03;;;;;;;;;;;;;;;;;;5098110;28;19932;-59
2023/12/06 11:11:28;;;;;;;;;;;;;;;;;;5100010;28;19923;-59
2023/12/06 11:13:54;;;;;;;;;;;;;;;;;;5097650;28;21265;-58
2023/12/06 11:16:19;;;;;;;;;;;;;;;;;;5097377;28;19976;-59
2023/12/06 11:18:45;;;;;;;;;;;;;;;;;;5103545;28;20034;-59
2023/12/06 11:21:10;;;;;;;;;;;;;;;;;;5102244;28;19979;-59
2023/12/06 11:23:36;;;;;;;;;;;;;;;;;;5102558;28;20192;-59
2023/12/06 11:26:03;;;;;;;;;;;;;;;;;;5099199;28;19932;-59
2023/12/06 11:28:29;;;;;;;;;;;;;;;;;;5102076;28;19967;-59
2023/12/06 11:30:55;;;;;;;;;;;;;;;;;;5097094;28;19931;-59
2023/12/06 11:33:20;;;;;;;;;;;;;;;;;;5094618;28;19935;-59
2023/12/06 11:35:46;;;;;;;;;;;;;;;;;;5093045;28;19943;-59
2023/12/06 11:38:11;;;;;;;;;;;;;;;;;;5098980;28;19923;-59
2023/12/06 11:40:37;;;;;;;;;;;;;;;;;;5096413;28;20337;-59
2023/12/06 11:43:02;;;;;;;;;;;;;;;;;;5093850;28;19946;-59
2023/12/06 11:45:28;;;;;;;;;;;;;;;;;;5086853;28;20043;-59
2023/12/06 11:47:54;;;;;;;;;;;;;;;;;;5095095;28;20289;-59
2023/12/06 11:50:19;;;;;;;;;;;;;;;;;;5097578;28;20473;-58
2023/12/06 11:52:45;;;;;;;;;;;;;;;;;;5015958;28;19933;-59
2023/12/06 11:55:10;;;;;;;;;;;;;;;;;;5014999;28;20127;-59
2023/12/06 11:57:36;;;;;;;;;;;;;;;;;;5013440;28;19946;-59
2023/12/06 12:00:02;;;;;;;;;;;;;;;;;;5009759;28;19933;-58
2023/12/06 12:02:29;;;;;;;;;;;;;;;;;;5001116;28;20894;-57
2023/12/06 12:04:55;;;;;;;;;;;;;;;;;;5006614;28;19983;-58
2023/12/06 12:07:20;;;;;;;;;;;;;;;;;;5013285;28;20424;-59
2023/12/06 12:09:46;;;;;;;;;;;;;;;;;;5014900;28;19929;-59
2023/12/06 12:12:12;;;;;;;;;;;;;;;;;;5091075;28;19932;-59
2023/12/06 12:14:37;;;;;;;;;;;;;;;;;;5091738;28;19972;-59
2023/12/06 12:17:03;;;;;;;;;;;;;;;;;;5097549;28;20516;-59
2023/12/06 12:19:28;;;;;;;;;;;;;;;;;;5096074;28;19977;-59
2023/12/06 12:21:54;;;;;;;;;;;;;;;;;;5074588;28;19932;-59
2023/12/06 12:24:19;;;;;;;;;;;;;;;;;;5093088;28;19932;-59
2023/12/06 12:26:45;;;;;;;;;;;;;;;;;;5099459;28;20034;-59
2023/12/06 12:29:10;;;;;;;;;;;;;;;;;;5098217;28;19924;-59
2023/12/06 12:31:36;;;;;;;;;;;;;;;;;;5098043;28;20340;-59
2023/12/06 12:34:02;;;;;;;;;;;;;;;;;;5089771;28;19938;-59
2023/12/06 12:36:27;;;;;;;;;;;;;;;;;;5096800;28;20272;-59
2023/12/06 12:38:56;;;;;;;;;;;;;;;;;;5093893;28;19924;-59
2023/12/06 12:41:21;;;;;;;;;;;;;;;;;;5097298;28;19935;-59
2023/12/06 12:43:47;;;;;;;;;;;;;;;;;;5095778;28;19931;-59
2023/12/06 12:46:13;;;;;;;;;;;;;;;;;;5100183;28;20465;-59
2023/12/06 12:48:38;;;;;;;;;;;;;;;;;;5099584;28;20016;-59
2023/12/06 12:51:04;;;;;;;;;;;;;;;;;;5102066;28;19923;-59
2023/12/06 12:53:29;;;;;;;;;;;;;;;;;;5098069;28;20395;-58
2023/12/06 12:55:54;;;;;;;;;;;;;;;;;;5098319;28;20320;-59
2023/12/06 12:58:20;;;;;;;;;;;;;;;;;;5088782;28;19936;-59
2023/12/06 13:00:45;;;;;;;;;;;;;;;;;;5088162;28;20060;-59
2023/12/06 13:03:11;;;;;;;;;;;;;;;;;;5088505;28;20048;-59
2023/12/06 13:05:37;;;;;;;;;;;;;;;;;;5091078;28;20442;-59
2023/12/06 13:08:02;;;;;;;;;;;;;;;;;;5090320;28;19928;-58
2023/12/06 13:10:28;;;;;;;;;;;;;;;;;;5088482;28;20411;-59
2023/12/06 13:12:54;;;;;;;;;;;;;;;;;;5089251;28;19924;-58
2023/12/06 13:15:31;;;;;;;;;;;;;;;;;;5090944;28;19928;-58
2023/12/06 13:17:57;;;;;;;;;;;;;;;;;;5090837;28;19978;-58
2023/12/06 13:20:22;;;;;;;;;;;;;;;;;;5090426;28;19978;-62
2023/12/06 13:22:48;;;;;;;;;;;;;;;;;;5090618;28;20383;-59
2023/12/06 13:25:14;;;;;;;;;;;;;;;;;;5088194;28;19967;-59
2023/12/06 13:27:39;;;;;;;;;;;;;;;;;;5089932;28;20034;-59
2023/12/06 13:30:05;;;;;;;;;;;;;;;;;;5086834;28;20838;-59
2023/12/06 13:32:31;;;;;;;;;;;;;;;;;;5086169;28;20278;-59
2023/12/06 13:34:57;;;;;;;;;;;;;;;;;;5097614;28;19932;-58
2023/12/06 13:37:22;;;;;;;;;;;;;;;;;;5095468;28;19932;-58
2023/12/06 13:39:48;;;;;;;;;;;;;;;;;;5031094;28;19981;-58
2023/12/06 13:42:14;;;;;;;;;;;;;;;;;;5032145;28;19964;-59
2023/12/06 13:44:40;;;;;;;;;;;;;;;;;;5027269;28;19932;-59
2023/12/06 13:47:05;;;;;;;;;;;;;;;;;;5033248;28;19925;-59
2023/12/06 13:49:31;;;;;;;;;;;;;;;;;;5035897;28;19928;-58
2023/12/06 13:51:56;;;;;;;;;;;;;;;;;;5035390;28;19925;-58
2023/12/06 13:54:22;;;;;;;;;;;;;;;;;;5030702;28;19932;-59
2023/12/06 13:56:47;;;;;;;;;;;;;;;;;;5024312;28;19935;-59
2023/12/06 13:59:13;;;;;;;;;;;;;;;;;;5089975;28;19935;-59
2023/12/06 14:01:38;;;;;;;;;;;;;;;;;;5087917;28;20255;-58
2023/12/06 14:04:04;;;;;;;;;;;;;;;;;;5090704;28;19938;-58
2023/12/06 14:06:32;;;;;;;;;;;;;;;;;;5090037;28;19966;-58
2023/12/06 14:08:58;;;;;;;;;;;;;;;;;;5088413;28;20014;-58
2023/12/06 14:11:23;;;;;;;;;;;;;;;;;;5091281;28;19932;-58
2023/12/06 14:13:50;;;;;;;;;;;;;;;;;;5088395;28;20035;-58
2023/12/06 14:16:16;;;;;;;;;;;;;;;;;;5091817;28;19935;-58
2023/12/06 14:18:41;;;;;;;;;;;;;;;;;;5092339;28;20371;-58
2023/12/06 14:21:08;;;;;;;;;;;;;;;;;;5091159;28;19924;-58
2023/12/06 14:23:33;;;;;;;;;;;;;;;;;;5090302;28;20678;-58
2023/12/06 14:25:59;;;;;;;;;;;;;;;;;;5090487;28;19936;-58
2023/12/06 14:28:24;;;;;;;;;;;;;;;;;;5090806;28;20415;-58
2023/12/06 14:30:50;;;;;;;;;;;;;;;;;;5091290;28;19974;-58
2023/12/06 14:33:15;;;;;;;;;;;;;;;;;;5089319;28;19928;-58
2023/12/06 14:35:41;;;;;;;;;;;;;;;;;;5093784;28;19938;-58
2023/12/06 14:38:07;;;;;;;;;;;;;;;;;;5100057;28;19924;-58
2023/12/06 14:40:33;;;;;;;;;;;;;;;;;;5105431;28;19961;-56
2023/12/06 14:42:58;;;;;;;;;;;;;;;;;;5104135;28;20206;-56
2023/12/06 14:45:25;;;;;;;;;;;;;;;;;;5106309;28;20306;-56
2023/12/06 14:47:50;;;;;;;;;;;;;;;;;;5105355;28;19928;-56
2023/12/06 14:50:15;;;;;;;;;;;;;;;;;;5103575;28;19963;-58
2023/12/06 14:52:41;;;;;;;;;;;;;;;;;;5107341;28;20022;-58
2023/12/06 14:55:07;;;;;;;;;;;;;;;;;;5105216;28;19932;-58
2023/12/06 14:57:33;;;;;;;;;;;;;;;;;;5105471;28;20327;-58
2023/12/06 14:59:59;;;;;;;;;;;;;;;;;;5106299;28;19924;-58
2023/12/06 15:02:25;;;;;;;;;;;;;;;;;;5106430;28;19924;-58
2023/12/06 15:04:50;;;;;;;;;;;;;;;;;;5106025;28;19931;-58
2023/12/06 15:07:16;;;;;;;;;;;;;;;;;;5105852;28;19979;-58
2023/12/06 15:09:41;;;;;;;;;;;;;;;;;;5104705;28;20158;-57
2023/12/06 15:12:07;;;;;;;;;;;;;;;;;;5104000;28;20298;-56
2023/12/06 15:14:32;;;;;;;;;;;;;;;;;;5106131;28;20344;-56
2023/12/06 15:16:58;;;;;;;;;;;;;;;;;;5105403;28;20690;-56
2023/12/06 15:19:23;;;;;;;;;;;;;;;;;;5105606;28;20035;-58
2023/12/06 15:22:00;;;;;;;;;;;;;;;;;;5105980;28;19924;-58
2023/12/06 15:24:27;;;;;;;;;;;;;;;;;;5105161;28;22301;-58
2023/12/06 15:26:53;;;;;;;;;;;;;;;;;;5107060;28;19935;-58
2023/12/06 15:29:18;;;;;;;;;;;;;;;;;;5106686;28;20239;-58
2023/12/06 15:31:45;;;;;;;;;;;;;;;;;;5106432;28;20019;-58
2023/12/06 15:34:10;;;;;;;;;;;;;;;;;;5106169;28;19924;-58
2023/12/06 15:36:36;;;;;;;;;;;;;;;;;;5106792;28;20007;-58
2023/12/06 15:39:01;;;;;;;;;;;;;;;;;;5106112;28;20061;-58
2023/12/06 15:41:27;;;;;;;;;;;;;;;;;;5106491;28;19924;-56
2023/12/06 15:43:59;;;;;;;;;;;;;;;;;;5105343;28;19978;-56
2023/12/06 15:46:25;;;;;;;;;;;;;;;;;;5106752;28;19955;-56
2023/12/06 15:48:51;;;;;;;;;;;;;;;;;;5106438;28;20371;-56
2023/12/06 15:51:17;;;;;;;;;;;;;;;;;;5106255;28;19931;-58
2023/12/06 15:53:42;;;;;;;;;;;;;;;;;;5106111;28;20375;-58
2023/12/06 15:56:08;;;;;;;;;;;;;;;;;;5106683;28;20345;-58
2023/12/06 15:58:34;;;;;;;;;;;;;;;;;;5106345;28;20026;-59
2023/12/06 16:00:59;;;;;;;;;;;;;;;;;;5106125;28;19924;-58
2023/12/06 16:03:26;;;;;;;;;;;;;;;;;;5105628;28;20006;-58
2023/12/06 16:05:51;;;;;;;;;;;;;;;;;;5105494;28;19927;-59
2023/12/06 16:08:17;;;;;;;;;;;;;;;;;;5105671;28;20098;-58
2023/12/06 16:10:42;;;;;;;;;;;;;;;;;;5106416;28;19923;-59
2023/12/06 16:13:18;;;;;;;;;;;;;;;;;;5106127;28;20016;-58
2023/12/06 16:15:44;;;;;;;;;;;;;;;;;;5106661;28;19986;-58
2023/12/06 16:18:20;;;;;;;;;;;;;;;;;;5109631;28;20027;-58
2023/12/06 16:20:46;;;;;;;;;;;;;;;;;;5110591;28;20363;-58
2023/12/06 16:23:11;;;;;;;;;;;;;;;;;;5108763;28;19982;-58
2023/12/06 16:25:37;;;;;;;;;;;;;;;;;;5108939;28;19992;-58
2023/12/06 16:28:07;;;;;;;;;;;;;;;;;;5109508;28;19970;-59
2023/12/06 16:30:33;;;;;;;;;;;;;;;;;;5109553;28;19928;-58
2023/12/06 16:32:58;;;;;;;;;;;;;;;;;;5108315;28;19928;-58
2023/12/06 16:35:24;;;;;;;;;;;;;;;;;;5108757;28;20604;-58
2023/12/06 16:37:50;;;;;;;;;;;;;;;;;;5109540;28;19979;-58
2023/12/06 16:40:15;;;;;;;;;;;;;;;;;;5109610;28;20042;-58